Data for 08/15/2013

Time Sea-Level Adjusted Pressure Absolute Pressure Temperature Relative Humidity Dew Point   
(mb) (inHg) (mb) (inHg) (C) (F) (%) (C) (F)
00:05 1021 30.15 850 25.1 19.4 66.8 32 2.4 36.3
00:10 1021 30.15 850 25.1 19.3 66.7 32 2.4 36.4
00:15 1021 30.15 850 25.1 19.2 66.5 33 2.7 36.9
00:20 1021 30.15 850 25.1 19 66.2 34 2.8 37
00:25 1021 30.15 850 25.1 18.9 66 34 2.7 36.8
00:30 1021 30.15 850 25.1 18.7 65.6 34 2.6 36.6
00:35 1021 30.15 850 25.1 18.5 65.2 35 2.7 36.8
00:40 1021 30.15 850 25.1 18.3 65 35 2.9 37.1
00:45 1021 30.15 850 25.1 18.2 64.8 36 3.1 37.6
00:50 1021 30.15 850 25.1 18.1 64.6 37 3.2 37.8
00:55 1021 30.15 850 25.1 18 64.4 38 3.5 38.2
01:00 1021 30.15 850 25.1 17.9 64.2 39 3.7 38.6
01:05 1021 30.15 850 25.1 17.7 63.8 39 3.8 38.9
01:10 1021 30.15 850 25.1 17.3 63.1 40 3.7 38.7
01:15 1021 30.15 850 25.1 16.9 62.5 41 3.6 38.5
01:20 1021 30.15 850 25.1 16.8 62.3 41 3.5 38.4
01:25 1021 30.15 850 25.1 16.9 62.4 41 3.7 38.6
01:30 1021 30.15 850 25.1 16.6 61.9 41 3.5 38.2
01:35 1021 30.15 850 25.1 16.5 61.7 40 3.1 37.6
01:40 1021 30.15 850 25.1 16.5 61.6 40 2.9 37.1
01:45 1021 30.15 850 25.1 16.4 61.6 39 2.7 36.9
01:50 1021 30.15 850 25.1 16.5 61.8 38 2.3 36.1
01:55 1021 30.15 850 25.1 16.7 62 38 2.2 36
02:00 1021 30.15 850 25.1 16.7 62 38 2.5 36.5
02:05 1021 30.15 850 25.1 16.5 61.6 39 2.4 36.4
02:10 1021 30.15 850 25.1 16.6 61.8 43 4.1 39.3
02:15 1021 30.15 850 25.1 16.6 62 38 2.4 36.3
02:20 1021 30.15 850 25.1 16.6 61.9 38 2.3 36.1
02:25 1021 30.15 850 25.1 16.5 61.6 37 1.9 35.4
02:30 1021 30.15 850 25.1 16.7 62 38 2.6 36.6
02:35 1021 30.15 850 25.1 17.2 63 35 1.7 35.1
02:40 1021 30.15 850 25.1 17.4 63.3 34 1.6 34.9
02:45 1021 30.15 850 25.1 17.3 63.1 35 1.8 35.2
02:50 1021 30.15 850 25.1 17.2 63 35 1.9 35.4
02:55 1021 30.15 850 25.1 17.2 62.9 37 2.6 36.7
03:00 1021 30.15 850 25.1 16.9 62.5 37 2.2 36
03:05 1021 30.15 850 25.1 16.8 62.3 37 2.3 36.2
03:10 1021 30.15 850 25.1 16.7 62.1 38 2.5 36.4
03:15 1021 30.15 850 25.1 16.7 62.1 37 2.2 35.9
03:20 1021 30.15 850 25.1 16.6 61.9 37 2 35.6
03:25 1021 30.15 850 25.1 16.4 61.6 38 2.1 35.7
03:30 1021 30.15 850 25.1 16 60.8 39 2.1 35.8
03:35 1021 30.15 850 25.1 15.7 60.3 39 2 35.5
03:40 1021 30.15 850 25.1 16 60.8 38 1.8 35.3
03:45 1021 30.15 850 25.1 16.5 61.6 37 1.7 35.1
03:50 1021 30.15 850 25.1 16.5 61.7 37 1.8 35.3
03:55 1021 30.15 850 25.1 16.4 61.5 37 1.8 35.2
04:00 1021 30.15 850 25.1 16.3 61.3 37 1.7 35.1
04:05 1021 30.15 850 25.1 16.2 61.2 37 1.8 35.3
04:10 1021 30.15 850 25.1 16.3 61.3 38 1.9 35.4
04:15 1021 30.15 850 25.1 16.1 61 38 1.9 35.5
04:20 1021 30.15 850 25.1 16 60.8 39 2.2 35.9
04:25 1021 30.15 850 25.1 15.7 60.2 39 1.8 35.2
04:30 1021 30.15 850 25.1 15.8 60.4 38 1.5 34.7
04:35 1021 30.15 850 25.1 16.2 61.1 38 1.8 35.2
04:40 1021 30.15 850 25.1 16.4 61.6 37 1.8 35.3
04:45 1021 30.15 850 25.1 16.5 61.6 37 2 35.5
04:50 1021 30.15 850 25.1 16.1 61.1 39 2.2 36
04:55 1021 30.15 850 25.1 15.7 60.3 40 2.3 36.2
05:00 1021 30.15 850 25.1 15.9 60.5 39 1.9 35.5
05:05 1021 30.15 850 25.1 15.6 60.2 39 1.9 35.5
05:10 1021 30.15 850 25.1 15.3 59.6 41 2.3 36.1
05:15 1021 30.15 850 25.1 14.7 58.5 43 2.4 36.3
05:20 1021 30.15 850 25.1 14.6 58.2 42 2 35.7
05:25 1021 30.15 850 25.1 14.4 58 44 2.5 36.5
05:30 1021 30.15 850 25.1 14.3 57.7 44 2.3 36.1
05:35 1021 30.15 850 25.1 14.4 57.9 44 2.4 36.3
05:40 1021 30.15 850 25.1 14.2 57.5 45 2.4 36.4
05:45 1021 30.15 850 25.1 14.6 58.4 41 1.8 35.2
05:50 1021 30.15 850 25.1 14.7 58.5 42 1.9 35.5
05:55 1021 30.15 850 25.1 15.1 59.1 39 1.3 34.4
06:00 1021 30.15 850 25.1 15.7 60.2 39 1.7 35
06:05 1021 30.15 850 25.1 15.8 60.4 39 1.9 35.4
06:10 1021 30.15 850 25.1 15.7 60.3 40 2.1 35.8
06:15 1021 30.15 851 25.13 15.6 60.2 40 2.3 36.2
06:20 1021 30.15 851 25.13 15.6 60.1 41 2.4 36.4
06:25 1021 30.15 851 25.13 15.7 60.3 40 2.4 36.2
06:30 1021 30.15 851 25.13 15.9 60.6 40 2.4 36.3
06:35 1021 30.15 851 25.13 15.8 60.4 39 2 35.6
06:40 1022 30.18 851 25.13 16 60.9 39 2 35.7
06:45 1022 30.18 851 25.13 16.3 61.3 39 2.3 36.1
06:50 1022 30.18 851 25.13 16.4 61.4 41 3.2 37.8
06:55 1022 30.18 851 25.13 16.5 61.6 40 3 37.3
07:00 1022 30.18 851 25.13 16.6 62 38 2.5 36.5
07:05 1022 30.18 851 25.13 16.8 62.2 38 2.6 36.6
07:10 1022 30.18 851 25.13 16.9 62.4 39 2.9 37.2
07:15 1022 30.18 851 25.13 17.1 62.9 39 3.2 37.7
07:20 1022 30.18 851 25.13 17.3 63.1 40 3.5 38.3
07:25 1022 30.18 851 25.13 17.6 63.6 40 3.8 38.9
07:30 1022 30.18 851 25.13 17.7 63.9 41 4.5 40.1
07:35 1022 30.18 851 25.13 18 64.4 41 4.7 40.4
07:40 1022 30.18 851 25.13 18 64.4 43 5.2 41.4
07:45 1022 30.18 851 25.13 18.1 64.6 41 4.8 40.7
07:50 1022 30.18 851 25.13 18.4 65 39 4.1 39.4
07:55 1022 30.18 851 25.13 18.8 65.8 39 4.6 40.3
08:00 1022 30.18 851 25.13 19.1 66.4 38 4.5 40.2
08:05 1022 30.18 851 25.13 19.3 66.7 35 3.7 38.7
08:10 1022 30.18 851 25.13 19.6 67.4 36 4.2 39.6
08:15 1022 30.18 851 25.13 20.2 68.4 34 4 39.3
08:20 1022 30.18 851 25.13 20.5 68.9 36 5.1 41.1
08:25 1022 30.18 851 25.13 20.3 68.6 32 3.1 37.6
08:30 1022 30.18 851 25.13 20.1 68.2 35 4.4 40
08:35 1022 30.18 851 25.13 20.3 68.5 33 3.4 38.2
08:40 1022 30.18 851 25.13 20.5 68.8 31 3.1 37.6
08:45 1022 30.18 851 25.13 20.9 69.7 27 1.3 34.3
08:50 1022 30.18 851 25.13 21.6 70.9 28 2.3 36.1
08:55 1022 30.18 851 25.13 22.3 72.1 27 2.6 36.7
09:00 1022 30.18 851 25.13 22.8 73 27 2.8 37.1
09:05 1022 30.18 851 25.13 23.2 73.7 26 2.6 36.7
09:10 1021 30.15 851 25.13 23.8 74.9 25 2.6 36.7
09:15 1021 30.15 851 25.13 24.2 75.5 25 3.2 37.7
09:20 1021 30.15 851 25.13 24.6 76.2 25 3.2 37.8
09:25 1021 30.15 851 25.13 24.8 76.6 25 3.4 38.2
09:30 1021 30.15 851 25.13 25.1 77.2 23 2.9 37.2
09:35 1021 30.15 851 25.13 25.5 77.8 22 2.4 36.4
09:40 1021 30.15 851 25.13 26.1 79.1 20 1.9 35.3
09:45 1021 30.15 851 25.13 26.5 79.6 21 2.9 37.3
09:50 1021 30.15 851 25.13 26.3 79.4 22 2.9 37.3
09:55 1021 30.15 851 25.13 26.1 79 22 2.8 37
10:00 1021 30.15 851 25.13 25.9 78.5 22 3.1 37.5
10:05 1021 30.15 851 25.13 25.4 77.6 23 3.1 37.6
10:10 1021 30.15 851 25.13 25.6 78 24 3.7 38.6
10:15 1021 30.15 851 25.13 25.8 78.4 23 3.6 38.5
10:20 1021 30.15 851 25.13 25.9 78.5 23 3.6 38.5
10:25 1021 30.15 851 25.13 26 78.9 24 4 39.3
10:30 1022 30.18 851 25.13 25.9 78.5 24 4 39.2
10:35 1022 30.18 851 25.13 25.9 78.6 23 3.3 38
10:40 1022 30.18 851 25.13 26.3 79.4 23 3.9 39.1
10:45 1021 30.15 851 25.13 26.3 79.4 23 3.7 38.6
10:50 1022 30.18 851 25.13 26.4 79.5 22 3.5 38.2
10:55 1021 30.15 851 25.13 26.6 79.8 22 3.5 38.3
11:00 1021 30.15 851 25.13 27 80.5 22 3.8 38.8
11:05 1021 30.15 851 25.13 27 80.7 22 3.6 38.5
11:10 1021 30.15 851 25.13 27.4 81.4 23 4.6 40.3
11:15 1021 30.15 851 25.13 27.6 81.6 22 4.5 40.1
11:20 1021 30.15 851 25.13 27.5 81.4 21 3.7 38.7
11:25 1021 30.15 851 25.13 27.1 80.8 21 3 37.4
11:30 1021 30.15 851 25.13 27.3 81.1 20 2.8 37.1
11:35 1021 30.15 851 25.13 27.7 81.8 20 3 37.5
11:40 1021 30.15 850 25.1 28.1 82.5 19 2.8 37
11:45 1021 30.15 850 25.1 28.3 83 19 3 37.3
11:50 1021 30.15 850 25.1 28.8 83.9 18 2.4 36.3
11:55 1021 30.15 850 25.1 29 84.2 18 2.4 36.4
12:00 1021 30.15 850 25.1 29.2 84.5 17 1.8 35.3
12:05 1021 30.15 850 25.1 29.5 85.1 17 2.6 36.7
12:10 1021 30.15 850 25.1 29.5 85.1 18 2.9 37.3
12:15 1021 30.15 850 25.1 29.7 85.5 16 1.8 35.3
12:20 1021 30.15 850 25.1 29.8 85.6 17 2.6 36.6
12:25 1021 30.15 850 25.1 30.2 86.4 16 1.7 35.1
12:30 1021 30.15 850 25.1 30.3 86.5 15 0.9 33.6
12:35 1021 30.15 850 25.1 30 86 15 1.3 34.3
12:40 1021 30.15 850 25.1 30.8 87.4 15 1.1 34
12:45 1021 30.15 850 25.1 30.9 87.5 14 0.8 33.4
12:50 1021 30.15 850 25.1 29.7 85.5 15 0.3 32.5
12:55 1021 30.15 850 25.1 29.7 85.5 14 0.2 32.3
13:00 1021 30.15 850 25.1 30.7 87.2 14 0.3 32.6
13:05 1021 30.15 850 25.1 31.4 88.6 14 1.2 34.2
13:10 1021 30.15 850 25.1 31.6 88.9 14 1.1 33.9
13:15 1020 30.12 850 25.1 31.6 88.9 12 -0.4 31.3
13:20 1020 30.12 850 25.1 31.3 88.3 14 0.9 33.7
13:25 1020 30.12 850 25.1 30.9 87.5 14 0.2 32.4
13:30 1020 30.12 850 25.1 30.5 86.8 12 -2.4 27.8
13:35 1020 30.12 850 25.1 31.4 88.4 11 -2.2 28
13:40 1020 30.12 849 25.07 31.7 89 11 -1.7 29
13:45 1020 30.12 849 25.07 30.8 87.5 11 -3 26.7
13:50 1020 30.12 849 25.07 31.5 88.7 10 -2.9 26.8
13:55 1020 30.12 849 25.07 31.9 89.3 9 -4.8 23.3
14:00 1020 30.12 849 25.07 32 89.5 9 -4.1 24.6
14:05 1020 30.12 849 25.07 32 89.5 9 -5 23
14:10 1020 30.12 849 25.07 32 89.6 9 -3.9 25.1
14:15 1020 30.12 849 25.07 32.3 90.1 9 -3.5 25.6
14:20 1020 30.12 849 25.07 32.1 89.8 9 -3.8 25.2
14:25 1020 30.12 849 25.07 31.4 88.5 10 -4 24.8
14:30 1020 30.12 849 25.07 31.2 88.2 9 -5.6 21.9
14:35 1020 30.12 849 25.07 31.4 88.5 9 -5.3 22.5
14:40 1020 30.12 849 25.07 31.9 89.4 9 -5.1 22.8
14:45 1020 30.12 849 25.07 31.6 88.8 10 -3.7 25.3
14:50 1020 30.12 849 25.07 31.2 88.1 9 -5.9 21.5
14:55 1020 30.12 849 25.07 31.2 88.2 9 -5 23
15:00 1020 30.12 849 25.07 31.8 89.3 9 -4.7 23.6
15:05 1020 30.12 849 25.07 31.9 89.4 9 -3.9 24.9
15:10 1020 30.12 849 25.07 31.9 89.5 9 -4.6 23.7
15:15 1020 30.12 849 25.07 32.2 89.9 9 -4.1 24.6
15:20 1020 30.12 849 25.07 32.1 89.9 9 -4.4 24
15:25 1020 30.12 849 25.07 32.6 90.6 10 -3 26.6
15:30 1019 30.09 849 25.07 32.8 91 10 -2.7 27.1
15:35 1019 30.09 849 25.07 32.5 90.5 9 -4.7 23.6
15:40 1019 30.09 849 25.07 32.7 90.9 8 -4.7 23.5
15:45 1019 30.09 849 25.07 32.3 90.2 9 -3.7 25.3
15:50 1019 30.09 849 25.07 32.5 90.5 9 -3.9 24.9
15:55 1019 30.09 848 25.04 32.7 90.9 9 -3.5 25.7
16:00 1019 30.09 848 25.04 32.7 90.9 9 -4.4 24.1
16:05 1019 30.09 848 25.04 33 91.4 9 -3.7 25.4
16:10 1019 30.09 848 25.04 32.1 89.7 9 -4.6 23.7
16:15 1019 30.09 848 25.04 32 89.6 9 -4.6 23.8
16:20 1019 30.09 848 25.04 31.5 88.7 9 -5.2 22.6
16:25 1019 30.09 848 25.04 31.7 89 9 -4 24.7
16:30 1019 30.09 848 25.04 32 89.7 9 -4.2 24.4
16:35 1019 30.09 848 25.04 31.8 89.2 9 -4.2 24.4
16:40 1019 30.09 848 25.04 32.1 89.7 8 -5.2 22.6
16:45 1019 30.09 848 25.04 31.9 89.4 9 -4.7 23.5
16:50 1019 30.09 848 25.04 31.9 89.3 9 -4.2 24.5
16:55 1019 30.09 848 25.04 32.6 90.8 8 -5.5 22.2
17:00 1019 30.09 848 25.04 32.3 90.1 8 -5.7 21.8
17:05 1019 30.09 848 25.04 32.3 90.1 9 -3.9 25
17:10 1019 30.09 848 25.04 31.9 89.4 9 -4.2 24.4
17:15 1019 30.09 848 25.04 32.4 90.4 9 -3.9 24.9
17:20 1019 30.09 848 25.04 31.7 89.1 9 -4 24.8
17:25 1019 30.09 848 25.04 31.7 89.1 9 -4 24.7
17:30 1019 30.09 848 25.04 32.2 89.9 9 -4.3 24.3
17:35 1019 30.09 848 25.04 32.2 90 9 -4 24.7
17:40 1019 30.09 848 25.04 32 89.6 10 -3.4 25.8
17:45 1019 30.09 848 25.04 31.8 89.3 10 -3.4 25.8
17:50 1019 30.09 848 25.04 31.5 88.7 9 -4.2 24.4
17:55 1019 30.09 848 25.04 31.1 88 9 -4.5 24
18:00 1019 30.09 848 25.04 31 87.7 9 -4.6 23.8
18:05 1019 30.09 848 25.04 30.9 87.5 10 -4.2 24.4
18:10 1019 30.09 848 25.04 30.8 87.4 10 -3.8 25.2
18:15 1019 30.09 848 25.04 30.6 87.2 10 -3.6 25.6
18:20 1019 30.09 848 25.04 30.5 86.9 9 -5 23.1
18:25 1019 30.09 848 25.04 30.4 86.8 10 -4.1 24.7
18:30 1019 30.09 848 25.04 30.4 86.7 10 -3.9 25
18:35 1019 30.09 848 25.04 30.3 86.6 10 -3.8 25.2
18:40 1019 30.09 848 25.04 30.2 86.3 11 -3.2 26.3
18:45 1019 30.09 848 25.04 30 86 12 -2.1 28.2
18:50 1019 30.09 848 25.04 29.8 85.7 11 -3.2 26.2
18:55 1019 30.09 848 25.04 29.8 85.6 11 -3.7 25.3
19:00 1019 30.09 848 25.04 29.6 85.2 11 -3.8 25.2
19:05 1019 30.09 848 25.04 29.4 84.9 13 -1.2 29.9
19:10 1019 30.09 848 25.04 29.1 84.3 20 4.4 39.9
19:15 1019 30.09 848 25.04 27.8 82.1 21 3.8 38.8
19:20 1019 30.09 848 25.04 27 80.6 20 2.1 35.8
19:25 1019 30.09 848 25.04 27 80.5 18 0.9 33.6
19:30 1019 30.09 848 25.04 26.9 80.4 15 -1.4 29.5
19:35 1019 30.09 848 25.04 26.9 80.4 20 2 35.7
19:40 1019 30.09 848 25.04 25.5 78 27 5.4 41.7
19:45 1019 30.09 848 25.04 24.6 76.3 23 2.1 35.8
19:50 1019 30.09 848 25.04 23.9 74.9 28 4.5 40.1
19:55 1019 30.09 848 25.04 23.1 73.6 25 2.3 36.2
20:00 1019 30.09 848 25.04 23 73.4 23 0.7 33.2
20:05 1019 30.09 848 25.04 22.9 73.3 23 0.8 33.4
20:10 1019 30.09 848 25.04 23 73.4 19 -1.4 29.4
20:15 1019 30.09 848 25.04 23 73.5 20 -0.9 30.3
20:20 1019 30.09 848 25.04 23.1 73.5 19 -1.9 28.6
20:25 1019 30.09 848 25.04 23.2 73.8 20 -1.1 30.1
20:30 1019 30.09 848 25.04 23 73.4 19 -1.8 28.7
20:35 1019 30.09 848 25.04 22.8 73 19 -1.8 28.7
20:40 1019 30.09 848 25.04 22.7 72.9 19 -1.7 28.9
20:45 1019 30.09 848 25.04 22.6 72.7 20 -1.5 29.3
20:50 1019 30.09 848 25.04 22.4 72.3 20 -1.7 29
20:55 1019 30.09 848 25.04 22.2 72 21 -1.2 29.9
21:00 1019 30.09 848 25.04 22.1 71.8 20 -1.5 29.4
21:05 1019 30.09 848 25.04 21.9 71.5 21 -1.3 29.7
21:10 1019 30.09 848 25.04 21.8 71.3 20 -1.9 28.6
21:15 1019 30.09 848 25.04 21.8 71.2 20 -2.1 28.1
21:20 1019 30.09 848 25.04 21.7 71 20 -1.8 28.8
21:25 1019 30.09 848 25.04 21.3 70.3 21 -1.9 28.5
21:30 1019 30.09 848 25.04 21.2 70.2 21 -2 28.3
21:35 1019 30.09 848 25.04 21.1 70 20 -2.5 27.5
21:40 1019 30.09 848 25.04 21.5 70.7 19 -2.6 27.3
21:45 1019 30.09 848 25.04 21.7 71.1 18 -3.3 26.1
21:50 1019 30.09 848 25.04 22.8 73 15 -5.1 22.8
21:55 1019 30.09 848 25.04 23.8 74.9 15 -4.3 24.2
22:00 1019 30.09 848 25.04 23.1 73.6 18 -2 28.3
22:05 1019 30.09 848 25.04 22 71.6 19 -2.5 27.4
22:10 1019 30.09 848 25.04 22 71.6 19 -2.4 27.6
22:15 1019 30.09 848 25.04 22.1 71.9 18 -3.3 26
22:20 1019 30.09 848 25.04 23.8 74.8 15 -4 24.7
22:25 1019 30.09 848 25.04 24.3 75.8 15 -3.6 25.6
22:30 1019 30.09 848 25.04 24 75.2 17 -2.5 27.5
22:35 1019 30.09 848 25.04 23.4 74 18 -2.4 27.7
22:40 1019 30.09 848 25.04 23.3 74 17 -2.7 27.1
22:45 1019 30.09 848 25.04 24.1 75.3 17 -2.3 27.9
22:50 1019 30.09 848 25.04 24.2 75.5 17 -2 28.4
22:55 1019 30.09 848 25.04 24.1 75.3 18 -1.8 28.8
23:00 1019 30.09 848 25.04 23.8 74.8 19 -1.3 29.6
23:05 1019 30.09 848 25.04 23.4 74 19 -1.3 29.6
23:10 1019 30.09 848 25.04 23.2 73.7 20 -1.1 30.1
23:15 1019 30.09 848 25.04 23.2 73.8 19 -1.2 29.8
23:20 1019 30.09 848 25.04 23.4 74 20 -0.8 30.5
23:25 1019 30.09 848 25.04 23.4 74 20 -0.6 30.9
23:30 1019 30.09 848 25.04 23.7 74.6 20 -0.6 30.9
23:35 1019 30.09 848 25.04 23.9 75 20 -0.4 31.3
23:40 1019 30.09 848 25.04 23.9 75.1 20 -0.1 31.8
23:45 1019 30.09 848 25.04 23.8 74.8 20 -0.1 31.9
23:50 1019 30.09 848 25.04 23.8 74.8 20 -0.2 31.7
23:55 1019 30.09 848 25.04 23.7 74.7 21 0.1 32.2
24:00 1019 30.09 848 25.04 23.5 74.3 21 0.1 32.2